首页
METAR-TAF:

METAR-TAF

机场 :

科羅拉多大峽谷, 亞利桑那州, 美国

纬度: 35-56-46N, 经度: 112-09-17W, 海拔: 2014米

当前天气观测

该预报发布于39分钟前的00:54 UTC
风速6节,风向西南
温度 13°C
湿度 38%
气压 1018 hPa
能見度: 16.1公里
散云层高于7000英尺

METAR: KGCN 250054Z 23006KT 10SM SCT070 13/M01 A3005 RMK AO2 SLP138 T01331006

时间: 18:33 (01:33 UTC)

预报

该预报发布于2小时和10分钟前的23:23 UTC
预报有效从25日的 00点(UTC)到 25日的 24点(UTC)
风速8节,风向西转西南
能見度: 10公里
多云层高于6000英尺
从 25日的 0200点(UTC)
风速5节,风向多变
能見度: 10公里
散云层高于6000英尺
从 25日的 1700点(UTC)
风速10节,风向西南,有时为20节阵风
能見度: 10公里
天空无云

TAF: KGCN 242323Z 2500/2524 24008KT P6SM BKN060 FM250200 VRB05KT P6SM SCT060 FM251700 22010G20KT P6SM SKC

超过4000个机场的气象观测和天气预报(METAR&TAF报告)。

可查询的气象台以黄色和红色小点在地图上表示。

将鼠标移到小点上方,可查看气象台名称。

然后点击查看天气观测和预报。

如需切换地图:点击带黑十字的绿色按钮放大地图;点击带横线的绿色按钮缩小地图;或者点击绿色箭头查看邻近地区的地图。


METAR-TAF: